sensor_id;sensor_type;location;lat;lon;timestamp;temperature;humidity
17341;DHT22;8788;49.930;8.660;2022-08-01T04:06:05;21.60;99.90
17341;DHT22;8788;49.930;8.660;2022-08-01T04:08:35;21.50;99.90
17341;DHT22;8788;49.930;8.660;2022-08-01T04:11:02;21.50;99.90
17341;DHT22;8788;49.930;8.660;2022-08-01T04:13:31;21.50;99.90
17341;DHT22;8788;49.930;8.660;2022-08-01T04:15:58;21.40;99.90
17341;DHT22;8788;49.930;8.660;2022-08-01T04:18:26;21.40;99.90
17341;DHT22;8788;49.930;8.660;2022-08-01T04:20:53;21.40;99.90
17341;DHT22;8788;49.930;8.660;2022-08-01T04:23:24;21.40;99.90
17341;DHT22;8788;49.930;8.660;2022-08-01T04:25:53;21.40;99.90
17341;DHT22;8788;49.930;8.660;2022-08-01T04:28:22;21.40;99.90
17341;DHT22;8788;49.930;8.660;2022-08-01T04:30:52;21.50;99.90
17341;DHT22;8788;49.930;8.660;2022-08-01T04:33:21;21.50;99.90
17341;DHT22;8788;49.930;8.660;2022-08-01T04:35:51;21.40;99.90
17341;DHT22;8788;49.930;8.660;2022-08-01T04:38:27;21.40;99.90
17341;DHT22;8788;49.930;8.660;2022-08-01T04:40:56;21.50;99.90
17341;DHT22;8788;49.930;8.660;2022-08-01T04:43:24;21.50;99.90
17341;DHT22;8788;49.930;8.660;2022-08-01T04:45:51;21.50;99.90
17341;DHT22;8788;49.930;8.660;2022-08-01T04:48:19;21.50;99.90
17341;DHT22;8788;49.930;8.660;2022-08-01T04:50:47;21.60;99.90
17341;DHT22;8788;49.930;8.660;2022-08-01T04:53:15;21.70;99.90
17341;DHT22;8788;49.930;8.660;2022-08-01T04:55:45;21.70;99.90
17341;DHT22;8788;49.930;8.660;2022-08-01T04:58:13;21.80;99.90
17341;DHT22;8788;49.930;8.660;2022-08-01T05:00:43;21.80;99.90
17341;DHT22;8788;49.930;8.660;2022-08-01T05:03:10;21.80;99.90
17341;DHT22;8788;49.930;8.660;2022-08-01T05:05:37;21.90;99.90
17341;DHT22;8788;49.930;8.660;2022-08-01T05:08:04;21.90;99.90
17341;DHT22;8788;49.930;8.660;2022-08-01T05:10:32;22.00;99.90
17341;DHT22;8788;49.930;8.660;2022-08-01T05:13:01;22.00;99.90
17341;DHT22;8788;49.930;8.660;2022-08-01T05:15:28;22.00;99.90
17341;DHT22;8788;49.930;8.660;2022-08-01T05:17:56;22.00;99.90
17341;DHT22;8788;49.930;8.660;2022-08-01T05:20:23;21.80;99.90
17341;DHT22;8788;49.930;8.660;2022-08-01T05:22:51;21.80;99.90
17341;DHT22;8788;49.930;8.660;2022-08-01T05:25:18;21.90;99.90
17341;DHT22;8788;49.930;8.660;2022-08-01T05:27:45;22.00;99.90
17341;DHT22;8788;49.930;8.660;2022-08-01T05:30:14;22.10;99.90
17341;DHT22;8788;49.930;8.660;2022-08-01T05:32:43;22.10;99.90
17341;DHT22;8788;49.930;8.660;2022-08-01T05:35:10;22.20;99.90
17341;DHT22;8788;49.930;8.660;2022-08-01T05:37:37;22.20;99.90
17341;DHT22;8788;49.930;8.660;2022-08-01T05:40:05;22.20;99.90
17341;DHT22;8788;49.930;8.660;2022-08-01T05:42:33;22.20;99.90
17341;DHT22;8788;49.930;8.660;2022-08-01T05:45:00;22.10;99.90
17341;DHT22;8788;49.930;8.660;2022-08-01T05:47:28;22.20;99.90
17341;DHT22;8788;49.930;8.660;2022-08-01T05:49:55;22.20;99.90
17341;DHT22;8788;49.930;8.660;2022-08-01T05:52:22;22.20;99.90
17341;DHT22;8788;49.930;8.660;2022-08-01T05:54:49;22.30;99.90
17341;DHT22;8788;49.930;8.660;2022-08-01T05:57:16;22.20;99.90
17341;DHT22;8788;49.930;8.660;2022-08-01T05:59:43;22.20;99.90
17341;DHT22;8788;49.930;8.660;2022-08-01T06:02:11;22.20;99.90
17341;DHT22;8788;49.930;8.660;2022-08-01T06:04:39;22.30;99.90
17341;DHT22;8788;49.930;8.660;2022-08-01T06:07:06;22.40;99.90
17341;DHT22;8788;49.930;8.660;2022-08-01T06:09:33;22.50;99.90
17341;DHT22;8788;49.930;8.660;2022-08-01T06:12:00;22.50;99.90
17341;DHT22;8788;49.930;8.660;2022-08-01T06:14:28;22.60;99.90
17341;DHT22;8788;49.930;8.660;2022-08-01T06:16:56;22.60;99.90
17341;DHT22;8788;49.930;8.660;2022-08-01T06:19:23;22.60;99.90
17341;DHT22;8788;49.930;8.660;2022-08-01T06:21:53;22.60;99.90
17341;DHT22;8788;49.930;8.660;2022-08-01T06:24:20;22.60;99.90
17341;DHT22;8788;49.930;8.660;2022-08-01T06:26:48;22.60;99.90
17341;DHT22;8788;49.930;8.660;2022-08-01T06:29:15;22.70;99.90
17341;DHT22;8788;49.930;8.660;2022-08-01T06:31:43;22.80;99.90
17341;DHT22;8788;49.930;8.660;2022-08-01T06:34:10;22.90;99.90
17341;DHT22;8788;49.930;8.660;2022-08-01T06:36:37;22.90;99.90
17341;DHT22;8788;49.930;8.660;2022-08-01T06:39:05;22.90;99.90
17341;DHT22;8788;49.930;8.660;2022-08-01T06:41:33;22.90;99.90
17341;DHT22;8788;49.930;8.660;2022-08-01T06:44:00;23.00;99.90
17341;DHT22;8788;49.930;8.660;2022-08-01T06:46:29;23.10;99.90
17341;DHT22;8788;49.930;8.660;2022-08-01T06:48:56;23.00;99.90
17341;DHT22;8788;49.930;8.660;2022-08-01T06:51:24;23.10;99.90
17341;DHT22;8788;49.930;8.660;2022-08-01T06:53:51;23.20;99.90
17341;DHT22;8788;49.930;8.660;2022-08-01T06:56:20;23.30;99.90
17341;DHT22;8788;49.930;8.660;2022-08-01T06:58:49;23.30;99.90
17341;DHT22;8788;49.930;8.660;2022-08-01T07:01:16;23.20;99.90
17341;DHT22;8788;49.930;8.660;2022-08-01T07:03:45;23.30;99.90
17341;DHT22;8788;49.930;8.660;2022-08-01T07:06:12;23.40;99.90
17341;DHT22;8788;49.930;8.660;2022-08-01T07:08:40;23.50;99.90
17341;DHT22;8788;49.930;8.660;2022-08-01T07:11:08;23.60;99.90
17341;DHT22;8788;49.930;8.660;2022-08-01T07:13:36;23.70;99.90
17341;DHT22;8788;49.930;8.660;2022-08-01T07:16:04;23.70;99.90
17341;DHT22;8788;49.930;8.660;2022-08-01T07:18:31;23.70;99.90
17341;DHT22;8788;49.930;8.660;2022-08-01T07:20:58;23.70;99.90
17341;DHT22;8788;49.930;8.660;2022-08-01T07:23:25;23.70;99.90
17341;DHT22;8788;49.930;8.660;2022-08-01T07:25:52;23.70;99.90
17341;DHT22;8788;49.930;8.660;2022-08-01T07:28:19;23.70;99.90
17341;DHT22;8788;49.930;8.660;2022-08-01T07:30:48;23.80;99.90
17341;DHT22;8788;49.930;8.660;2022-08-01T07:33:15;23.90;99.90
17341;DHT22;8788;49.930;8.660;2022-08-01T07:35:43;23.90;99.90
17341;DHT22;8788;49.930;8.660;2022-08-01T07:38:10;23.90;99.90
17341;DHT22;8788;49.930;8.660;2022-08-01T07:40:37;23.90;99.90
17341;DHT22;8788;49.930;8.660;2022-08-01T07:43:04;23.90;99.90
17341;DHT22;8788;49.930;8.660;2022-08-01T07:45:31;24.00;99.90
17341;DHT22;8788;49.930;8.660;2022-08-01T07:48:03;24.00;99.90
17341;DHT22;8788;49.930;8.660;2022-08-01T07:50:31;24.10;99.90
17341;DHT22;8788;49.930;8.660;2022-08-01T07:52:58;24.20;99.90
17341;DHT22;8788;49.930;8.660;2022-08-01T07:55:25;24.30;99.90
17341;DHT22;8788;49.930;8.660;2022-08-01T07:57:53;24.20;99.90
17341;DHT22;8788;49.930;8.660;2022-08-01T08:00:21;24.20;99.90
17341;DHT22;8788;49.930;8.660;2022-08-01T08:02:48;24.30;99.90
17341;DHT22;8788;49.930;8.660;2022-08-01T08:05:16;24.30;99.90
17341;DHT22;8788;49.930;8.660;2022-08-01T08:07:43;24.50;99.90
17341;DHT22;8788;49.930;8.660;2022-08-01T08:10:10;24.50;99.90
17341;DHT22;8788;49.930;8.660;2022-08-01T08:12:38;24.60;99.90
17341;DHT22;8788;49.930;8.660;2022-08-01T08:15:06;24.60;99.90
17341;DHT22;8788;49.930;8.660;2022-08-01T08:17:33;24.70;99.90
17341;DHT22;8788;49.930;8.660;2022-08-01T08:20:02;24.80;99.90
17341;DHT22;8788;49.930;8.660;2022-08-01T08:22:31;24.90;99.90
17341;DHT22;8788;49.930;8.660;2022-08-01T08:24:59;24.90;99.90
17341;DHT22;8788;49.930;8.660;2022-08-01T08:27:26;24.90;99.90
17341;DHT22;8788;49.930;8.660;2022-08-01T08:29:53;25.00;99.90
17341;DHT22;8788;49.930;8.660;2022-08-01T08:32:20;25.10;99.90
17341;DHT22;8788;49.930;8.660;2022-08-01T08:34:47;25.10;99.90
17341;DHT22;8788;49.930;8.660;2022-08-01T08:37:14;25.20;99.90
17341;DHT22;8788;49.930;8.660;2022-08-01T08:39:44;25.20;99.90
17341;DHT22;8788;49.930;8.660;2022-08-01T08:42:11;25.10;99.90
17341;DHT22;8788;49.930;8.660;2022-08-01T08:44:41;25.00;99.90
17341;DHT22;8788;49.930;8.660;2022-08-01T08:47:11;25.00;99.90
17341;DHT22;8788;49.930;8.660;2022-08-01T08:49:38;24.90;99.90
17341;DHT22;8788;49.930;8.660;2022-08-01T08:52:06;25.00;99.90
17341;DHT22;8788;49.930;8.660;2022-08-01T08:54:35;25.00;99.90
17341;DHT22;8788;49.930;8.660;2022-08-01T08:57:05;24.90;99.90
17341;DHT22;8788;49.930;8.660;2022-08-01T08:59:32;25.00;99.90
17341;DHT22;8788;49.930;8.660;2022-08-01T09:02:00;25.00;99.90
17341;DHT22;8788;49.930;8.660;2022-08-01T09:04:52;25.00;99.90
17341;DHT22;8788;49.930;8.660;2022-08-01T09:07:19;25.00;99.90
17341;DHT22;8788;49.930;8.660;2022-08-01T09:09:48;25.10;99.90
17341;DHT22;8788;49.930;8.660;2022-08-01T09:12:18;25.10;99.90
17341;DHT22;8788;49.930;8.660;2022-08-01T09:14:46;25.10;99.60
17341;DHT22;8788;49.930;8.660;2022-08-01T09:17:16;25.10;99.60
17341;DHT22;8788;49.930;8.660;2022-08-01T09:19:45;25.10;99.60
17341;DHT22;8788;49.930;8.660;2022-08-01T09:22:16;25.10;99.80
17341;DHT22;8788;49.930;8.660;2022-08-01T09:25:02;25.30;99.30
17341;DHT22;8788;49.930;8.660;2022-08-01T09:27:31;25.50;99.40
17341;DHT22;8788;49.930;8.660;2022-08-01T09:30:09;25.80;99.10
17341;DHT22;8788;49.930;8.660;2022-08-01T09:32:43;25.90;98.80
17341;DHT22;8788;49.930;8.660;2022-08-01T09:35:23;25.90;98.30
17341;DHT22;8788;49.930;8.660;2022-08-01T09:37:50;26.00;98.00
17341;DHT22;8788;49.930;8.660;2022-08-01T09:40:18;26.00;97.90
17341;DHT22;8788;49.930;8.660;2022-08-01T09:42:46;26.10;97.70
17341;DHT22;8788;49.930;8.660;2022-08-01T09:45:31;26.20;98.20
17341;DHT22;8788;49.930;8.660;2022-08-01T09:48:05;26.40;97.80
17341;DHT22;8788;49.930;8.660;2022-08-01T09:50:39;26.60;97.50
17341;DHT22;8788;49.930;8.660;2022-08-01T09:53:07;26.70;97.00
17341;DHT22;8788;49.930;8.660;2022-08-01T09:55:34;26.60;97.00
17341;DHT22;8788;49.930;8.660;2022-08-01T09:58:03;26.70;97.10
17341;DHT22;8788;49.930;8.660;2022-08-01T10:00:31;26.80;96.70
17341;DHT22;8788;49.930;8.660;2022-08-01T10:02:59;26.70;96.40
17341;DHT22;8788;49.930;8.660;2022-08-01T10:05:31;26.60;96.50
17341;DHT22;8788;49.930;8.660;2022-08-01T10:07:59;26.60;96.50
17341;DHT22;8788;49.930;8.660;2022-08-01T10:10:27;26.60;96.40
17341;DHT22;8788;49.930;8.660;2022-08-01T10:12:56;26.50;96.30
17341;DHT22;8788;49.930;8.660;2022-08-01T10:15:28;26.50;96.20
17341;DHT22;8788;49.930;8.660;2022-08-01T10:17:58;26.50;96.20
17341;DHT22;8788;49.930;8.660;2022-08-01T10:20:27;26.50;96.00
17341;DHT22;8788;49.930;8.660;2022-08-01T10:22:55;26.50;96.00
17341;DHT22;8788;49.930;8.660;2022-08-01T10:25:28;26.40;96.00
17341;DHT22;8788;49.930;8.660;2022-08-01T10:27:57;26.40;95.90
17341;DHT22;8788;49.930;8.660;2022-08-01T10:30:27;26.30;95.90
17341;DHT22;8788;49.930;8.660;2022-08-01T10:32:55;26.20;95.90
17341;DHT22;8788;49.930;8.660;2022-08-01T10:35:23;26.30;95.90
17341;DHT22;8788;49.930;8.660;2022-08-01T10:37:50;26.30;95.90
17341;DHT22;8788;49.930;8.660;2022-08-01T10:40:23;26.30;96.00
17341;DHT22;8788;49.930;8.660;2022-08-01T10:42:51;26.30;95.80
17341;DHT22;8788;49.930;8.660;2022-08-01T10:45:19;26.30;95.80
17341;DHT22;8788;49.930;8.660;2022-08-01T10:47:52;26.20;95.80
17341;DHT22;8788;49.930;8.660;2022-08-01T10:50:24;26.30;95.90
17341;DHT22;8788;49.930;8.660;2022-08-01T10:53:11;26.40;95.80
17341;DHT22;8788;49.930;8.660;2022-08-01T10:55:47;26.40;95.60
17341;DHT22;8788;49.930;8.660;2022-08-01T10:58:19;26.50;95.60
17341;DHT22;8788;49.930;8.660;2022-08-01T11:01:21;26.60;95.50
17341;DHT22;8788;49.930;8.660;2022-08-01T11:04:06;26.80;95.40
17341;DHT22;8788;49.930;8.660;2022-08-01T11:06:49;26.90;95.00
17341;DHT22;8788;49.930;8.660;2022-08-01T11:09:40;27.10;94.50
17341;DHT22;8788;49.930;8.660;2022-08-01T11:12:09;27.20;94.40
17341;DHT22;8788;49.930;8.660;2022-08-01T11:17:38;27.40;94.10
17341;DHT22;8788;49.930;8.660;2022-08-01T11:20:12;27.50;94.00
17341;DHT22;8788;49.930;8.660;2022-08-01T11:26:18;27.90;93.60
17341;DHT22;8788;49.930;8.660;2022-08-01T11:29:13;28.00;93.10
17341;DHT22;8788;49.930;8.660;2022-08-01T11:31:40;28.00;92.60
17341;DHT22;8788;49.930;8.660;2022-08-01T11:34:08;28.00;92.50
17341;DHT22;8788;49.930;8.660;2022-08-01T11:36:36;28.20;92.50
17341;DHT22;8788;49.930;8.660;2022-08-01T11:39:17;28.20;92.20
17341;DHT22;8788;49.930;8.660;2022-08-01T11:41:45;28.30;92.10
17341;DHT22;8788;49.930;8.660;2022-08-01T11:44:16;28.40;91.60
17341;DHT22;8788;49.930;8.660;2022-08-01T11:46:52;28.40;91.30
17341;DHT22;8788;49.930;8.660;2022-08-01T11:49:31;28.50;91.20
17341;DHT22;8788;49.930;8.660;2022-08-01T11:52:04;28.60;90.60
17341;DHT22;8788;49.930;8.660;2022-08-01T11:54:39;28.50;89.70
17341;DHT22;8788;49.930;8.660;2022-08-01T11:57:07;28.40;89.50
17341;DHT22;8788;49.930;8.660;2022-08-01T11:59:39;28.20;89.80
17341;DHT22;8788;49.930;8.660;2022-08-01T12:02:18;28.40;89.50
17341;DHT22;8788;49.930;8.660;2022-08-01T12:04:54;28.60;89.20
17341;DHT22;8788;49.930;8.660;2022-08-01T12:07:24;28.80;88.60
17341;DHT22;8788;49.930;8.660;2022-08-01T12:09:59;28.80;87.70
17341;DHT22;8788;49.930;8.660;2022-08-01T12:12:29;28.80;87.40
17341;DHT22;8788;49.930;8.660;2022-08-01T12:14:57;29.00;87.20
17341;DHT22;8788;49.930;8.660;2022-08-01T12:17:29;29.20;86.70
17341;DHT22;8788;49.930;8.660;2022-08-01T12:19:56;29.50;86.40
17341;DHT22;8788;49.930;8.660;2022-08-01T12:22:25;29.70;85.40
17341;DHT22;8788;49.930;8.660;2022-08-01T12:24:53;29.80;83.90
17341;DHT22;8788;49.930;8.660;2022-08-01T12:27:27;29.80;82.60
17341;DHT22;8788;49.930;8.660;2022-08-01T12:29:56;29.80;82.60
17341;DHT22;8788;49.930;8.660;2022-08-01T12:32:25;29.90;82.60
17341;DHT22;8788;49.930;8.660;2022-08-01T12:34:54;30.00;82.00
17341;DHT22;8788;49.930;8.660;2022-08-01T12:37:22;30.00;80.80
17341;DHT22;8788;49.930;8.660;2022-08-01T12:39:51;30.00;80.90
17341;DHT22;8788;49.930;8.660;2022-08-01T12:42:21;29.70;80.10
17341;DHT22;8788;49.930;8.660;2022-08-01T12:44:50;29.60;80.90
17341;DHT22;8788;49.930;8.660;2022-08-01T12:47:18;29.50;80.50
17341;DHT22;8788;49.930;8.660;2022-08-01T12:49:47;29.40;80.00
17341;DHT22;8788;49.930;8.660;2022-08-01T12:52:15;29.50;80.00
17341;DHT22;8788;49.930;8.660;2022-08-01T12:55:13;29.40;79.60
17341;DHT22;8788;49.930;8.660;2022-08-01T12:57:42;29.60;79.70
17341;DHT22;8788;49.930;8.660;2022-08-01T13:00:17;29.70;79.50
17341;DHT22;8788;49.930;8.660;2022-08-01T13:02:46;29.90;79.90
17341;DHT22;8788;49.930;8.660;2022-08-01T13:05:14;30.20;79.60
17341;DHT22;8788;49.930;8.660;2022-08-01T13:07:44;30.40;76.50
17341;DHT22;8788;49.930;8.660;2022-08-01T13:10:14;30.20;76.60
17341;DHT22;8788;49.930;8.660;2022-08-01T13:12:51;29.80;77.30
17341;DHT22;8788;49.930;8.660;2022-08-01T13:15:29;29.70;78.10
17341;DHT22;8788;49.930;8.660;2022-08-01T13:17:59;29.60;78.40
17341;DHT22;8788;49.930;8.660;2022-08-01T13:20:32;29.60;78.60
17341;DHT22;8788;49.930;8.660;2022-08-01T13:23:14;29.50;78.20
17341;DHT22;8788;49.930;8.660;2022-08-01T13:25:55;29.50;78.40
17341;DHT22;8788;49.930;8.660;2022-08-01T13:28:23;29.50;78.00
17341;DHT22;8788;49.930;8.660;2022-08-01T13:30:55;29.50;78.20
17341;DHT22;8788;49.930;8.660;2022-08-01T13:33:23;29.50;77.60
17341;DHT22;8788;49.930;8.660;2022-08-01T13:35:52;29.50;77.90
17341;DHT22;8788;49.930;8.660;2022-08-01T13:38:19;29.40;77.70
17341;DHT22;8788;49.930;8.660;2022-08-01T13:41:08;29.40;77.50
17341;DHT22;8788;49.930;8.660;2022-08-01T13:43:35;29.40;77.80
17341;DHT22;8788;49.930;8.660;2022-08-01T13:46:02;29.40;77.70
17341;DHT22;8788;49.930;8.660;2022-08-01T13:48:30;29.40;77.60
17341;DHT22;8788;49.930;8.660;2022-08-01T13:50:58;29.40;77.50
17341;DHT22;8788;49.930;8.660;2022-08-01T13:53:25;29.40;77.00
17341;DHT22;8788;49.930;8.660;2022-08-01T13:55:53;29.40;76.70
17341;DHT22;8788;49.930;8.660;2022-08-01T13:58:21;29.20;76.80
17341;DHT22;8788;49.930;8.660;2022-08-01T14:00:49;29.20;76.90
17341;DHT22;8788;49.930;8.660;2022-08-01T14:03:16;29.20;77.00
17341;DHT22;8788;49.930;8.660;2022-08-01T14:05:43;29.10;76.60
17341;DHT22;8788;49.930;8.660;2022-08-01T14:08:11;29.10;76.60
17341;DHT22;8788;49.930;8.660;2022-08-01T14:10:38;29.00;76.60
17341;DHT22;8788;49.930;8.660;2022-08-01T14:13:05;29.00;76.90
17341;DHT22;8788;49.930;8.660;2022-08-01T14:15:34;29.10;76.70
17341;DHT22;8788;49.930;8.660;2022-08-01T14:18:02;29.00;76.50
17341;DHT22;8788;49.930;8.660;2022-08-01T14:20:29;29.00;76.10
17341;DHT22;8788;49.930;8.660;2022-08-01T14:22:56;29.00;76.00
17341;DHT22;8788;49.930;8.660;2022-08-01T14:25:23;29.00;76.50
17341;DHT22;8788;49.930;8.660;2022-08-01T14:27:50;29.00;76.70
17341;DHT22;8788;49.930;8.660;2022-08-01T14:30:17;29.10;76.70
17341;DHT22;8788;49.930;8.660;2022-08-01T14:33:11;29.20;76.30
17341;DHT22;8788;49.930;8.660;2022-08-01T14:35:39;29.20;76.30
17341;DHT22;8788;49.930;8.660;2022-08-01T14:38:07;29.20;76.10
17341;DHT22;8788;49.930;8.660;2022-08-01T14:40:34;29.10;76.00
17341;DHT22;8788;49.930;8.660;2022-08-01T14:43:02;29.00;75.70
17341;DHT22;8788;49.930;8.660;2022-08-01T14:45:29;28.90;75.60
17341;DHT22;8788;49.930;8.660;2022-08-01T14:47:56;28.90;76.00
17341;DHT22;8788;49.930;8.660;2022-08-01T14:50:25;28.80;76.20
17341;DHT22;8788;49.930;8.660;2022-08-01T14:52:53;28.80;76.30
17341;DHT22;8788;49.930;8.660;2022-08-01T14:55:20;28.80;76.30
17341;DHT22;8788;49.930;8.660;2022-08-01T14:57:50;28.90;76.10
17341;DHT22;8788;49.930;8.660;2022-08-01T15:00:18;28.80;75.70
17341;DHT22;8788;49.930;8.660;2022-08-01T15:02:45;28.90;75.80
17341;DHT22;8788;49.930;8.660;2022-08-01T15:05:12;28.80;75.90
17341;DHT22;8788;49.930;8.660;2022-08-01T15:07:41;28.80;76.10
17341;DHT22;8788;49.930;8.660;2022-08-01T15:10:09;28.80;76.50
17341;DHT22;8788;49.930;8.660;2022-08-01T15:12:36;28.80;76.30
17341;DHT22;8788;49.930;8.660;2022-08-01T15:15:04;28.80;76.30
17341;DHT22;8788;49.930;8.660;2022-08-01T15:17:31;28.70;76.60
17341;DHT22;8788;49.930;8.660;2022-08-01T15:20:00;28.60;76.60
17341;DHT22;8788;49.930;8.660;2022-08-01T15:22:28;28.50;76.80
17341;DHT22;8788;49.930;8.660;2022-08-01T15:24:58;28.40;77.00
17341;DHT22;8788;49.930;8.660;2022-08-01T15:27:26;28.40;77.30
17341;DHT22;8788;49.930;8.660;2022-08-01T15:29:54;28.30;77.30
17341;DHT22;8788;49.930;8.660;2022-08-01T15:32:22;28.20;77.50
17341;DHT22;8788;49.930;8.660;2022-08-01T15:34:49;28.10;78.30
17341;DHT22;8788;49.930;8.660;2022-08-01T15:37:17;27.90;80.10
17341;DHT22;8788;49.930;8.660;2022-08-01T15:39:44;27.50;83.00
17341;DHT22;8788;49.930;8.660;2022-08-01T15:42:14;26.90;85.30
17341;DHT22;8788;49.930;8.660;2022-08-01T15:45:07;26.50;87.50
17341;DHT22;8788;49.930;8.660;2022-08-01T15:47:35;26.00;89.50
17341;DHT22;8788;49.930;8.660;2022-08-01T15:50:02;25.50;90.60
17341;DHT22;8788;49.930;8.660;2022-08-01T15:52:30;25.20;91.20
17341;DHT22;8788;49.930;8.660;2022-08-01T15:54:58;24.90;92.40
17341;DHT22;8788;49.930;8.660;2022-08-01T15:57:26;24.70;93.40
17341;DHT22;8788;49.930;8.660;2022-08-01T15:59:53;24.60;94.00
17341;DHT22;8788;49.930;8.660;2022-08-01T16:02:21;24.50;94.40
17341;DHT22;8788;49.930;8.660;2022-08-01T16:04:48;24.40;94.70
17341;DHT22;8788;49.930;8.660;2022-08-01T16:07:15;24.40;95.20
17341;DHT22;8788;49.930;8.660;2022-08-01T16:09:42;24.50;95.40
17341;DHT22;8788;49.930;8.660;2022-08-01T16:12:09;24.50;95.90
17341;DHT22;8788;49.930;8.660;2022-08-01T16:14:37;24.60;96.20
17341;DHT22;8788;49.930;8.660;2022-08-01T16:17:05;24.60;96.70
17341;DHT22;8788;49.930;8.660;2022-08-01T16:19:32;24.70;97.00
17341;DHT22;8788;49.930;8.660;2022-08-01T16:21:59;24.70;97.50
17341;DHT22;8788;49.930;8.660;2022-08-01T16:24:26;24.80;98.10
17341;DHT22;8788;49.930;8.660;2022-08-01T16:26:55;24.80;98.40
17341;DHT22;8788;49.930;8.660;2022-08-01T16:29:23;24.80;98.90
17341;DHT22;8788;49.930;8.660;2022-08-01T16:31:56;24.90;99.40
17341;DHT22;8788;49.930;8.660;2022-08-01T16:34:24;24.90;99.90
17341;DHT22;8788;49.930;8.660;2022-08-01T16:36:51;25.00;99.90
17341;DHT22;8788;49.930;8.660;2022-08-01T16:39:20;25.00;99.90
17341;DHT22;8788;49.930;8.660;2022-08-01T16:41:47;25.20;99.90
17341;DHT22;8788;49.930;8.660;2022-08-01T16:44:14;25.50;99.90
17341;DHT22;8788;49.930;8.660;2022-08-01T16:46:45;25.70;99.90
17341;DHT22;8788;49.930;8.660;2022-08-01T16:49:14;25.90;99.90
17341;DHT22;8788;49.930;8.660;2022-08-01T16:51:41;26.00;99.90
17341;DHT22;8788;49.930;8.660;2022-08-01T16:54:08;26.00;99.90
17341;DHT22;8788;49.930;8.660;2022-08-01T16:56:35;25.90;99.90
17341;DHT22;8788;49.930;8.660;2022-08-01T16:59:02;25.90;99.90
17341;DHT22;8788;49.930;8.660;2022-08-01T17:01:30;25.90;99.90
17341;DHT22;8788;49.930;8.660;2022-08-01T17:03:58;25.90;99.90
17341;DHT22;8788;49.930;8.660;2022-08-01T17:06:27;25.90;99.90
17341;DHT22;8788;49.930;8.660;2022-08-01T17:08:54;25.80;99.90
17341;DHT22;8788;49.930;8.660;2022-08-01T17:11:21;25.80;99.90
17341;DHT22;8788;49.930;8.660;2022-08-01T17:13:51;25.70;99.90
17341;DHT22;8788;49.930;8.660;2022-08-01T17:16:18;25.60;99.90
17341;DHT22;8788;49.930;8.660;2022-08-01T17:18:46;25.50;99.90
17341;DHT22;8788;49.930;8.660;2022-08-01T17:21:14;25.50;99.90
17341;DHT22;8788;49.930;8.660;2022-08-01T17:23:42;25.50;99.90
17341;DHT22;8788;49.930;8.660;2022-08-01T17:26:10;25.40;99.90
17341;DHT22;8788;49.930;8.660;2022-08-01T17:28:37;25.40;99.90
17341;DHT22;8788;49.930;8.660;2022-08-01T17:31:04;25.40;99.90
17341;DHT22;8788;49.930;8.660;2022-08-01T17:33:31;25.40;99.90
17341;DHT22;8788;49.930;8.660;2022-08-01T17:35:59;25.40;99.90
17341;DHT22;8788;49.930;8.660;2022-08-01T17:38:26;25.50;99.90
17341;DHT22;8788;49.930;8.660;2022-08-01T17:40:54;25.40;99.90
17341;DHT22;8788;49.930;8.660;2022-08-01T17:43:21;25.50;99.90
17341;DHT22;8788;49.930;8.660;2022-08-01T17:45:48;25.50;99.90
17341;DHT22;8788;49.930;8.660;2022-08-01T17:48:18;25.50;99.90
17341;DHT22;8788;49.930;8.660;2022-08-01T17:50:46;25.50;99.90
17341;DHT22;8788;49.930;8.660;2022-08-01T17:53:15;25.60;99.90
17341;DHT22;8788;49.930;8.660;2022-08-01T17:55:45;25.70;99.90
17341;DHT22;8788;49.930;8.660;2022-08-01T17:58:14;25.70;99.90
17341;DHT22;8788;49.930;8.660;2022-08-01T18:00:42;25.80;99.90
17341;DHT22;8788;49.930;8.660;2022-08-01T18:03:09;25.80;99.90
17341;DHT22;8788;49.930;8.660;2022-08-01T18:05:37;25.80;99.90
17341;DHT22;8788;49.930;8.660;2022-08-01T18:08:05;25.80;99.90
17341;DHT22;8788;49.930;8.660;2022-08-01T18:10:33;25.80;99.90
17341;DHT22;8788;49.930;8.660;2022-08-01T18:13:00;25.80;99.90
17341;DHT22;8788;49.930;8.660;2022-08-01T18:15:29;25.80;99.90
17341;DHT22;8788;49.930;8.660;2022-08-01T18:17:56;25.70;99.90
17341;DHT22;8788;49.930;8.660;2022-08-01T18:20:23;25.70;99.90
17341;DHT22;8788;49.930;8.660;2022-08-01T18:22:51;25.60;99.90
17341;DHT22;8788;49.930;8.660;2022-08-01T18:25:18;25.60;99.90
17341;DHT22;8788;49.930;8.660;2022-08-01T18:27:51;25.50;99.90
17341;DHT22;8788;49.930;8.660;2022-08-01T18:30:18;25.40;99.90
17341;DHT22;8788;49.930;8.660;2022-08-01T18:32:47;25.30;99.90
17341;DHT22;8788;49.930;8.660;2022-08-01T18:35:14;25.20;99.90
17341;DHT22;8788;49.930;8.660;2022-08-01T18:37:41;25.10;99.90
17341;DHT22;8788;49.930;8.660;2022-08-01T18:40:09;25.10;99.90
17341;DHT22;8788;49.930;8.660;2022-08-01T18:42:36;25.10;99.90
17341;DHT22;8788;49.930;8.660;2022-08-01T18:45:04;25.10;99.90
17341;DHT22;8788;49.930;8.660;2022-08-01T18:47:31;25.10;99.90
17341;DHT22;8788;49.930;8.660;2022-08-01T18:49:59;25.10;99.90
17341;DHT22;8788;49.930;8.660;2022-08-01T18:52:27;25.10;99.90
17341;DHT22;8788;49.930;8.660;2022-08-01T18:54:54;25.20;99.90
17341;DHT22;8788;49.930;8.660;2022-08-01T18:57:21;25.20;99.90
17341;DHT22;8788;49.930;8.660;2022-08-01T18:59:48;25.30;99.90
17341;DHT22;8788;49.930;8.660;2022-08-01T19:02:15;25.30;99.90
17341;DHT22;8788;49.930;8.660;2022-08-01T19:04:42;25.30;99.90
17341;DHT22;8788;49.930;8.660;2022-08-01T19:07:11;25.30;99.90
17341;DHT22;8788;49.930;8.660;2022-08-01T19:09:38;25.30;99.90
17341;DHT22;8788;49.930;8.660;2022-08-01T19:12:05;25.30;99.90
17341;DHT22;8788;49.930;8.660;2022-08-01T19:14:32;25.30;99.90
17341;DHT22;8788;49.930;8.660;2022-08-01T19:17:00;25.30;99.90
17341;DHT22;8788;49.930;8.660;2022-08-01T19:19:27;25.30;99.90
17341;DHT22;8788;49.930;8.660;2022-08-01T19:21:55;25.20;99.90
17341;DHT22;8788;49.930;8.660;2022-08-01T19:24:23;25.20;99.90
17341;DHT22;8788;49.930;8.660;2022-08-01T19:26:52;25.30;99.90
17341;DHT22;8788;49.930;8.660;2022-08-01T19:29:22;25.30;99.90
17341;DHT22;8788;49.930;8.660;2022-08-01T19:31:50;25.20;99.90
17341;DHT22;8788;49.930;8.660;2022-08-01T19:34:19;25.20;99.90
17341;DHT22;8788;49.930;8.660;2022-08-01T19:36:49;25.20;99.90
17341;DHT22;8788;49.930;8.660;2022-08-01T19:39:19;25.20;99.90
17341;DHT22;8788;49.930;8.660;2022-08-01T19:41:50;25.20;99.90
17341;DHT22;8788;49.930;8.660;2022-08-01T19:44:19;25.20;99.90
17341;DHT22;8788;49.930;8.660;2022-08-01T19:46:47;25.20;99.90
17341;DHT22;8788;49.930;8.660;2022-08-01T19:49:16;25.20;99.90
17341;DHT22;8788;49.930;8.660;2022-08-01T19:51:50;25.10;99.90
17341;DHT22;8788;49.930;8.660;2022-08-01T19:54:19;25.10;99.90
17341;DHT22;8788;49.930;8.660;2022-08-01T19:56:56;25.10;99.90
17341;DHT22;8788;49.930;8.660;2022-08-01T19:59:26;25.00;99.90
17341;DHT22;8788;49.930;8.660;2022-08-01T20:01:55;25.00;99.90
17341;DHT22;8788;49.930;8.660;2022-08-01T20:04:25;24.90;99.90
17341;DHT22;8788;49.930;8.660;2022-08-01T20:06:52;24.90;99.90
17341;DHT22;8788;49.930;8.660;2022-08-01T20:09:20;24.80;99.90